Time;durP1;ratioP1;P1;durP2;ratioP2;P2;SDS_P1;SDS_P2;PMS_P1;PMS_P2;Temp;Humidity;BMP_temperature;BMP_pressure;BME280_temperature;BME280_humidity;BME280_pressure;Samples;Min_cycle;Max_cycle;Signal;HPM_P1;HPM_P2
2022/04/18 00:02:19;;;;;;;;;;;5.20;58.70;;;;;;6206820;23;19994;-81
2022/04/18 00:04:47;;;;;;;;;;;6.50;60.60;;;;;;6184578;23;19935;-83
2022/04/18 00:07:13;;;;;;;;;;;5.40;60.70;;;;;;6194787;23;19898;-83
2022/04/18 00:09:38;;;;;;;;;;;5.00;61.90;;;;;;6239162;23;19904;-82
2022/04/18 00:12:15;;;;;;;;;;;4.90;61.20;;;;;;6240242;23;19919;-82
2022/04/18 00:14:41;;;;;;;;;;;4.90;61.60;;;;;;6214794;23;19904;-82
2022/04/18 00:17:19;;;;;;;;;;;4.80;61.50;;;;;;6234998;23;19904;-82
2022/04/18 00:19:55;;;;;;;;;;;;;;;;;;;;;
2022/04/18 00:22:29;;;;;;;;;;;4.60;63.80;;;;;;6163230;23;19923;-82
2022/04/18 00:25:14;;;;;;;;;;;4.80;64.60;;;;;;6214458;23;19919;-83
2022/04/18 00:28:03;;;;;;;;;;;4.20;63.10;;;;;;6239315;22;20533;-82
2022/04/18 00:33:25;;;;;;;;;;;4.70;63.80;;;;;;6146728;23;19920;-83
2022/04/18 00:35:52;;;;;;;;;;;4.60;63.80;;;;;;6150346;23;19913;-84
2022/04/18 00:38:19;;;;;;;;;;;4.90;64.10;;;;;;6148619;23;19919;-83
2022/04/18 00:41:01;;;;;;;;;;;4.40;63.60;;;;;;6151093;23;19925;-83
2022/04/18 00:43:48;;;;;;;;;;;1.70;63.00;;;;;;6126860;23;19897;-81
2022/04/18 00:46:22;;;;;;;;;;;4.50;64.10;;;;;;6151756;23;19909;-83
2022/04/18 00:48:48;;;;;;;;;;;4.70;64.20;;;;;;6151227;23;19893;-82
2022/04/18 00:51:15;;;;;;;;;;;4.40;63.80;;;;;;6127095;23;19935;-84
2022/04/18 00:53:41;;;;;;;;;;;4.80;63.30;;;;;;6125072;23;19909;-82
2022/04/18 00:56:16;;;;;;;;;;;4.40;63.70;;;;;;6139295;23;19912;-83
2022/04/18 00:58:46;;;;;;;;;;;4.30;64.30;;;;;;6144234;23;19909;-83
2022/04/18 01:01:12;;;;;;;;;;;4.30;66.00;;;;;;6143475;23;19945;-83
2022/04/18 01:03:39;;;;;;;;;;;4.20;65.10;;;;;;6142796;23;19905;-82
2022/04/18 01:06:07;;;;;;;;;;;4.00;64.80;;;;;;6141179;23;19938;-82
2022/04/18 01:08:36;;;;;;;;;;;5.40;64.40;;;;;;6137198;23;20171;-83
2022/04/18 01:11:05;;;;;;;;;;;4.10;64.00;;;;;;6140862;23;19905;-82
2022/04/18 01:13:38;;;;;;;;;;;4.30;64.40;;;;;;6114835;23;19916;-83
2022/04/18 01:16:04;;;;;;;;;;;4.20;64.40;;;;;;6116137;23;19948;-81
2022/04/18 01:18:32;;;;;;;;;;;4.20;64.20;;;;;;6138038;23;19912;-83
2022/04/18 01:21:05;;;;;;;;;;;4.30;63.90;;;;;;6197063;23;20211;-82
2022/04/18 01:23:31;;;;;;;;;;;4.30;62.50;;;;;;6204292;23;19907;-81
2022/04/18 01:29:00;;;;;;;;;;;4.30;63.60;;;;;;6232978;23;19930;-83
2022/04/18 01:31:30;;;;;;;;;;;4.30;63.90;;;;;;6231764;23;19904;-83
2022/04/18 01:34:02;;;;;;;;;;;4.40;64.50;;;;;;6232778;23;19936;-85
2022/04/18 01:36:36;;;;;;;;;;;3.40;63.40;;;;;;6234779;23;19908;-84
2022/04/18 01:39:17;;;;;;;;;;;4.30;63.70;;;;;;6208808;23;19904;-83
2022/04/18 01:41:49;;;;;;;;;;;4.60;64.10;;;;;;6236585;23;19907;-84
2022/04/18 01:44:14;;;;;;;;;;;4.50;64.20;;;;;;6237020;23;19912;-84
2022/04/18 01:46:44;;;;;;;;;;;4.40;63.90;;;;;;6237145;23;20045;-82
2022/04/18 01:49:12;;;;;;;;;;;6.10;64.60;;;;;;6236721;23;19995;-83
2022/04/18 01:51:38;;;;;;;;;;;4.40;64.80;;;;;;6211454;23;19908;-82
2022/04/18 01:54:04;;;;;;;;;;;4.20;65.00;;;;;;6210073;23;19915;-83
2022/04/18 01:56:53;;;;;;;;;;;4.10;64.10;;;;;;6236897;22;19901;-83
2022/04/18 01:59:23;;;;;;;;;;;4.20;63.20;;;;;;6233183;23;19907;-82
2022/04/18 02:02:16;;;;;;;;;;;4.00;63.40;;;;;;6204986;23;19904;-82
2022/04/18 02:04:42;;;;;;;;;;;4.00;63.70;;;;;;6139087;23;19929;-82
2022/04/18 02:07:09;;;;;;;;;;;4.00;64.10;;;;;;6131341;23;19905;-81
2022/04/18 02:09:38;;;;;;;;;;;0.80;62.40;;;;;;6137102;23;20474;-84
2022/04/18 02:12:05;;;;;;;;;;;4.10;64.60;;;;;;6120183;23;19929;-82
2022/04/18 02:14:31;;;;;;;;;;;4.00;64.50;;;;;;6124198;23;19901;-83
2022/04/18 02:16:59;;;;;;;;;;;4.10;65.00;;;;;;6148378;23;19900;-84
2022/04/18 02:19:27;;;;;;;;;;;4.10;64.30;;;;;;6120756;23;19908;-84
2022/04/18 02:22:00;;;;;;;;;;;3.70;64.70;;;;;;6097758;23;19893;-84
2022/04/18 02:24:27;;;;;;;;;;;3.00;63.50;;;;;;6124556;23;19893;-83
2022/04/18 02:26:55;;;;;;;;;;;4.30;63.50;;;;;;6149276;23;19936;-83
2022/04/18 02:29:21;;;;;;;;;;;4.40;63.90;;;;;;6148841;23;19915;-84
2022/04/18 02:34:36;;;;;;;;;;;5.50;64.90;;;;;;6144690;23;19916;-83
2022/04/18 02:37:03;;;;;;;;;;;6.10;65.30;;;;;;6145895;23;19889;-85
2022/04/18 02:39:31;;;;;;;;;;;1.90;62.70;;;;;;6148144;23;19909;-81
2022/04/18 02:41:57;;;;;;;;;;;4.60;64.10;;;;;;6120071;23;19904;-84
2022/04/18 02:44:31;;;;;;;;;;;3.90;64.60;;;;;;6148237;23;19954;-80
2022/04/18 02:47:13;;;;;;;;;;;3.90;64.10;;;;;;6126856;23;19893;-83
2022/04/18 02:49:42;;;;;;;;;;;4.10;65.00;;;;;;6150787;23;19897;-81
2022/04/18 02:52:12;;;;;;;;;;;3.80;65.30;;;;;;6148694;23;19953;-82
2022/04/18 02:55:01;;;;;;;;;;;2.70;64.50;;;;;;6146704;23;19920;-82
2022/04/18 02:57:27;;;;;;;;;;;3.90;65.40;;;;;;6148711;23;20009;-80
2022/04/18 02:59:59;;;;;;;;;;;3.90;65.10;;;;;;6149074;23;19917;-81
2022/04/18 03:02:28;;;;;;;;;;;3.90;64.70;;;;;;6232886;23;19912;-81
2022/04/18 03:04:55;;;;;;;;;;;3.80;64.90;;;;;;6234898;23;20178;-80
2022/04/18 03:10:11;;;;;;;;;;;3.80;65.10;;;;;;6175182;23;19920;-81
2022/04/18 03:12:37;;;;;;;;;;;4.30;65.80;;;;;;6148714;23;19954;-80
2022/04/18 03:15:26;;;;;;;;;;;4.00;65.10;;;;;;6173767;23;19908;-80
2022/04/18 03:17:55;;;;;;;;;;;3.80;64.10;;;;;;6176379;23;19905;-80
2022/04/18 03:20:27;;;;;;;;;;;3.90;64.30;;;;;;6176478;23;19970;-80
2022/04/18 03:23:11;;;;;;;;;;;4.00;64.60;;;;;;6147360;23;19916;-81
2022/04/18 03:25:44;;;;;;;;;;;2.40;64.40;;;;;;6173358;23;19913;-81
2022/04/18 03:28:09;;;;;;;;;;;3.90;67.20;;;;;;6176234;23;19928;-81
2022/04/18 03:30:58;;;;;;;;;;;4.10;66.60;;;;;;6178612;23;19908;-81
2022/04/18 03:33:24;;;;;;;;;;;3.90;66.60;;;;;;6171509;23;19908;-81
2022/04/18 03:41:19;;;;;;;;;;;3.80;70.10;;;;;;6156297;23;19948;-81
2022/04/18 03:43:45;;;;;;;;;;;3.80;70.40;;;;;;6128454;23;19909;-80
2022/04/18 03:46:11;;;;;;;;;;;3.80;71.50;;;;;;6179425;23;19912;-80
2022/04/18 03:48:36;;;;;;;;;;;3.70;72.80;;;;;;6153550;23;19913;-81
2022/04/18 03:51:05;;;;;;;;;;;3.70;73.60;;;;;;6176966;23;19913;-81
2022/04/18 03:53:33;;;;;;;;;;;3.60;73.00;;;;;;6153987;23;19892;-81
2022/04/18 03:55:59;;;;;;;;;;;3.60;72.60;;;;;;6155585;23;19912;-80
2022/04/18 03:58:25;;;;;;;;;;;3.50;73.50;;;;;;6171613;23;19920;-82
2022/04/18 04:00:54;;;;;;;;;;;3.60;75.30;;;;;;6232258;23;20330;-83
2022/04/18 04:03:42;;;;;;;;;;;2.50;73.50;;;;;;6228030;23;19914;-83
2022/04/18 04:06:43;;;;;;;;;;;3.40;74.80;;;;;;6233053;23;19934;-81
2022/04/18 04:09:18;;;;;;;;;;;3.30;74.60;;;;;;6207911;23;19908;-82
2022/04/18 04:11:48;;;;;;;;;;;3.30;75.30;;;;;;6204353;23;19911;-83
2022/04/18 04:14:13;;;;;;;;;;;3.30;75.60;;;;;;6209134;23;19904;-81
2022/04/18 04:16:59;;;;;;;;;;;3.30;76.30;;;;;;6208018;23;19904;-82
2022/04/18 04:19:38;;;;;;;;;;;3.30;76.40;;;;;;6156390;23;19902;-81
2022/04/18 04:22:07;;;;;;;;;;;3.30;76.00;;;;;;6210643;23;20157;-81
2022/04/18 04:24:33;;;;;;;;;;;3.20;76.00;;;;;;6212047;23;19896;-84
2022/04/18 04:26:59;;;;;;;;;;;3.40;76.30;;;;;;6186918;23;19892;-82
2022/04/18 04:29:31;;;;;;;;;;;3.20;76.20;;;;;;6211044;23;19940;-80
2022/04/18 04:32:09;;;;;;;;;;;3.20;76.10;;;;;;6210681;23;19908;-80
2022/04/18 04:34:35;;;;;;;;;;;3.30;76.10;;;;;;6211141;23;19912;-81
2022/04/18 04:37:06;;;;;;;;;;;3.20;76.70;;;;;;6211711;23;19935;-82
2022/04/18 04:39:34;;;;;;;;;;;3.20;76.40;;;;;;6211759;23;19908;-81
2022/04/18 04:42:09;;;;;;;;;;;3.10;76.30;;;;;;6207938;23;19916;-81
2022/04/18 04:44:36;;;;;;;;;;;2.90;76.10;;;;;;6209690;23;19908;-80
2022/04/18 04:47:04;;;;;;;;;;;3.10;77.00;;;;;;6211289;23;19955;-82
2022/04/18 04:49:42;;;;;;;;;;;3.00;77.20;;;;;;6203085;23;19904;-80
2022/04/18 04:52:08;;;;;;;;;;;3.10;77.80;;;;;;6207363;23;19912;-82
2022/04/18 04:54:40;;;;;;;;;;;3.20;77.70;;;;;;6207691;23;19911;-81
2022/04/18 04:57:20;;;;;;;;;;;3.10;76.20;;;;;;6206486;23;19889;-80
2022/04/18 04:59:46;;;;;;;;;;;3.00;74.80;;;;;;6179867;23;19920;-79
2022/04/18 05:02:26;;;;;;;;;;;3.30;75.20;;;;;;6202637;23;19904;-81
2022/04/18 05:04:52;;;;;;;;;;;3.70;74.80;;;;;;6200160;23;19912;-80
2022/04/18 05:07:17;;;;;;;;;;;3.20;73.90;;;;;;6199088;23;19924;-81
2022/04/18 05:09:43;;;;;;;;;;;3.20;73.20;;;;;;6200777;23;19959;-81
2022/04/18 05:12:13;;;;;;;;;;;3.30;72.60;;;;;;6199781;23;19910;-81
2022/04/18 05:14:40;;;;;;;;;;;3.20;73.20;;;;;;6172483;23;19919;-80
2022/04/18 05:17:06;;;;;;;;;;;3.40;75.30;;;;;;6170413;23;19920;-81
2022/04/18 05:19:31;;;;;;;;;;;5.00;77.60;;;;;;6172461;23;19904;-81
2022/04/18 05:21:57;;;;;;;;;;;3.50;76.90;;;;;;6168786;23;19909;-81
2022/04/18 05:24:23;;;;;;;;;;;3.50;77.20;;;;;;6187606;23;19904;-82
2022/04/18 05:26:49;;;;;;;;;;;3.60;76.70;;;;;;6163165;23;19938;-82
2022/04/18 05:29:16;;;;;;;;;;;3.70;76.20;;;;;;6189258;23;19904;-81
2022/04/18 05:31:45;;;;;;;;;;;3.90;75.50;;;;;;6193939;23;19904;-80
2022/04/18 05:34:11;;;;;;;;;;;3.80;74.70;;;;;;6191972;23;19947;-81
2022/04/18 05:36:37;;;;;;;;;;;3.90;74.60;;;;;;6193080;23;19908;-80
2022/04/18 05:39:03;;;;;;;;;;;4.00;74.60;;;;;;6194530;23;19915;-82
2022/04/18 05:41:28;;;;;;;;;;;4.10;74.20;;;;;;6173652;23;19960;-81
2022/04/18 05:43:55;;;;;;;;;;;4.20;73.00;;;;;;6175776;23;19947;-82
2022/04/18 05:46:22;;;;;;;;;;;4.30;72.50;;;;;;6200928;23;19912;-80
2022/04/18 05:48:48;;;;;;;;;;;4.40;72.50;;;;;;6200167;23;19914;-80
2022/04/18 05:51:15;;;;;;;;;;;4.50;72.50;;;;;;6199246;23;19904;-81
2022/04/18 05:53:41;;;;;;;;;;;4.50;71.70;;;;;;6202441;23;19905;-80
2022/04/18 05:56:06;;;;;;;;;;;4.60;71.60;;;;;;6199060;23;19904;-81
2022/04/18 05:58:32;;;;;;;;;;;4.70;71.20;;;;;;6194417;23;19916;-80
2022/04/18 06:00:58;;;;;;;;;;;4.70;69.50;;;;;;6199569;23;19915;-81
2022/04/18 06:03:24;;;;;;;;;;;4.80;69.70;;;;;;6188423;23;19936;-81
2022/04/18 06:05:55;;;;;;;;;;;4.90;69.10;;;;;;6189406;23;19916;-80
2022/04/18 06:08:21;;;;;;;;;;;5.90;66.70;;;;;;6188364;23;19931;-80
2022/04/18 06:10:46;;;;;;;;;;;5.00;65.50;;;;;;6162957;23;19904;-82
2022/04/18 06:13:12;;;;;;;;;;;4.90;65.20;;;;;;6188708;23;20351;-81
2022/04/18 06:15:37;;;;;;;;;;;5.00;65.50;;;;;;6191595;23;19912;-80
2022/04/18 06:18:06;;;;;;;;;;;5.00;65.40;;;;;;6206355;23;19904;-81
2022/04/18 06:20:56;;;;;;;;;;;8.00;66.70;;;;;;6207922;23;20372;-82
2022/04/18 06:23:46;;;;;;;;;;;5.20;65.00;;;;;;6205137;23;19931;-81
2022/04/18 06:26:18;;;;;;;;;;;5.30;64.50;;;;;;6204264;23;19908;-82
2022/04/18 06:29:09;;;;;;;;;;;5.40;64.60;;;;;;6180290;23;19912;-80
2022/04/18 06:31:55;;;;;;;;;;;5.30;62.60;;;;;;6193359;23;20324;-82
2022/04/18 06:34:35;;;;;;;;;;;5.10;64.40;;;;;;6200065;23;19904;-83
2022/04/18 06:37:08;;;;;;;;;;;5.30;64.50;;;;;;6179357;23;19905;-81
2022/04/18 06:39:37;;;;;;;;;;;5.50;65.40;;;;;;6196300;23;19905;-83
2022/04/18 06:42:05;;;;;;;;;;;5.80;63.50;;;;;;6203361;23;19904;-81
2022/04/18 06:44:39;;;;;;;;;;;5.90;63.00;;;;;;6210874;23;19914;-80
2022/04/18 06:47:09;;;;;;;;;;;6.00;62.10;;;;;;6210230;23;19912;-84
2022/04/18 06:50:12;;;;;;;;;;;6.10;62.00;;;;;;6205217;23;19931;-80
2022/04/18 06:52:40;;;;;;;;;;;6.20;62.20;;;;;;6201570;23;20275;-81
2022/04/18 06:55:15;;;;;;;;;;;6.40;61.90;;;;;;6204690;23;19919;-81
2022/04/18 06:57:45;;;;;;;;;;;6.50;61.60;;;;;;6207923;23;19911;-83
2022/04/18 07:00:11;;;;;;;;;;;6.40;60.40;;;;;;6205681;23;19920;-82
2022/04/18 07:02:43;;;;;;;;;;;6.70;60.20;;;;;;6200255;23;19888;-84
2022/04/18 07:05:15;;;;;;;;;;;6.90;59.70;;;;;;6211176;23;19888;-82
2022/04/18 07:07:56;;;;;;;;;;;8.60;60.60;;;;;;6212312;23;19936;-82
2022/04/18 07:10:21;;;;;;;;;;;7.40;60.00;;;;;;6197463;23;20386;-82
2022/04/18 07:12:48;;;;;;;;;;;6.20;57.60;;;;;;6203679;23;19963;-84
2022/04/18 07:21:01;;;;;;;;;;;7.50;56.70;;;;;;6180492;23;19916;-82
2022/04/18 07:23:47;;;;;;;;;;;7.80;56.60;;;;;;6156925;23;19897;-83
2022/04/18 07:26:16;;;;;;;;;;;8.00;57.50;;;;;;6133127;23;19996;-81
2022/04/18 07:29:00;;;;;;;;;;;8.70;56.10;;;;;;6108508;23;19901;-82
2022/04/18 07:31:38;;;;;;;;;;;8.70;55.20;;;;;;6081403;23;19901;-82
2022/04/18 07:34:05;;;;;;;;;;;9.80;50.30;;;;;;6130392;23;19905;-81
2022/04/18 07:36:33;;;;;;;;;;;9.00;47.30;;;;;;6133800;23;19969;-82
2022/04/18 07:41:55;;;;;;;;;;;9.00;44.80;;;;;;6181036;23;19917;-82
2022/04/18 07:44:22;;;;;;;;;;;9.40;44.50;;;;;;6089017;23;19906;-80
2022/04/18 07:46:48;;;;;;;;;;;9.20;44.70;;;;;;6071549;23;19990;-79
2022/04/18 07:49:24;;;;;;;;;;;9.50;43.10;;;;;;6090587;23;19920;-82
2022/04/18 07:51:52;;;;;;;;;;;9.00;43.20;;;;;;6183120;23;19954;-80
2022/04/18 07:54:22;;;;;;;;;;;9.70;45.00;;;;;;6216315;23;19900;-83
2022/04/18 07:56:57;;;;;;;;;;;9.80;43.60;;;;;;6161293;23;19900;-83
2022/04/18 08:02:08;;;;;;;;;;;10.20;42.90;;;;;;6168621;23;20288;-81
2022/04/18 08:04:34;;;;;;;;;;;9.80;42.00;;;;;;6161369;23;19909;-82
2022/04/18 08:07:02;;;;;;;;;;;10.60;42.90;;;;;;6145239;23;19912;-82
2022/04/18 08:09:28;;;;;;;;;;;10.50;42.00;;;;;;6193627;23;19901;-82
2022/04/18 08:12:01;;;;;;;;;;;10.50;41.20;;;;;;6190295;23;19904;-82
2022/04/18 08:20:47;;;;;;;;;;;11.00;41.80;;;;;;6165333;23;19922;-86
2022/04/18 08:26:47;;;;;;;;;;;11.30;40.70;;;;;;6177238;23;19931;-87
2022/04/18 08:29:30;;;;;;;;;;;11.60;40.50;;;;;;6107510;23;20483;-80
2022/04/18 08:31:56;;;;;;;;;;;11.20;39.60;;;;;;6081215;23;19910;-80
2022/04/18 08:34:22;;;;;;;;;;;11.10;40.00;;;;;;6107088;23;19917;-83
2022/04/18 08:36:48;;;;;;;;;;;11.40;38.50;;;;;;6119835;23;19933;-83
2022/04/18 08:39:13;;;;;;;;;;;11.40;39.20;;;;;;6120037;23;20664;-84
2022/04/18 08:41:39;;;;;;;;;;;9.40;38.40;;;;;;6120058;23;19906;-83
2022/04/18 08:44:26;;;;;;;;;;;11.60;40.50;;;;;;6108494;23;19912;-80
2022/04/18 08:46:52;;;;;;;;;;;11.60;39.60;;;;;;6095753;23;19961;-81
2022/04/18 08:52:43;;;;;;;;;;;11.40;38.10;;;;;;6089212;23;19916;-83
2022/04/18 08:55:01;;;;;;;;;;;12.10;38.80;;;;;;6087933;23;19912;-80
2022/04/18 08:57:27;;;;;;;;;;;12.10;38.30;;;;;;6085179;23;19909;-81
2022/04/18 08:59:58;;;;;;;;;;;12.10;38.10;;;;;;6094418;23;19924;-80
2022/04/18 09:02:36;;;;;;;;;;;12.30;39.80;;;;;;6101913;23;19913;-82
2022/04/18 09:05:02;;;;;;;;;;;12.40;38.70;;;;;;6117530;23;19933;-80
2022/04/18 09:08:00;;;;;;;;;;;12.60;38.60;;;;;;6118006;23;19909;-88
2022/04/18 09:10:32;;;;;;;;;;;12.60;37.00;;;;;;6112682;23;19905;-88
2022/04/18 09:13:06;;;;;;;;;;;14.00;39.40;;;;;;6104385;23;19909;-80
2022/04/18 09:15:34;;;;;;;;;;;12.80;36.20;;;;;;6111389;23;19917;-83
2022/04/18 09:18:25;;;;;;;;;;;12.10;36.00;;;;;;6066489;23;19905;-84
2022/04/18 09:20:52;;;;;;;;;;;12.90;35.50;;;;;;6098806;23;19922;-82
2022/04/18 09:23:25;;;;;;;;;;;12.80;37.50;;;;;;6082539;23;19909;-84
2022/04/18 09:26:14;;;;;;;;;;;;;;;;;;;;;
2022/04/18 09:28:43;;;;;;;;;;;15.10;38.30;;;;;;6086630;23;19908;-87
2022/04/18 09:31:27;;;;;;;;;;;13.60;38.00;;;;;;6118780;23;19897;-81
2022/04/18 09:33:56;;;;;;;;;;;14.60;37.40;;;;;;6142484;23;19982;-81
2022/04/18 09:36:22;;;;;;;;;;;13.20;37.70;;;;;;6095592;23;20541;-82
2022/04/18 09:38:49;;;;;;;;;;;13.40;36.20;;;;;;6111864;23;20376;-88
2022/04/18 09:41:24;;;;;;;;;;;13.40;37.90;;;;;;6125554;23;19909;-86
2022/04/18 09:43:55;;;;;;;;;;;13.60;38.50;;;;;;6112355;23;19912;-84
2022/04/18 09:46:24;;;;;;;;;;;13.20;35.60;;;;;;6123464;23;19908;-88
2022/04/18 09:48:50;;;;;;;;;;;13.70;36.10;;;;;;6194578;23;20107;-84
2022/04/18 09:51:23;;;;;;;;;;;13.60;35.60;;;;;;6163883;23;19904;-83
2022/04/18 09:53:50;;;;;;;;;;;13.70;36.00;;;;;;6183253;23;19915;-87
2022/04/18 09:56:22;;;;;;;;;;;14.60;36.50;;;;;;6180520;23;19911;-86
2022/04/18 09:58:48;;;;;;;;;;;13.70;35.90;;;;;;6180427;23;19905;-85
2022/04/18 10:01:17;;;;;;;;;;;13.60;36.30;;;;;;6182864;23;19927;-89
2022/04/18 10:03:43;;;;;;;;;;;12.80;35.90;;;;;;6160203;23;19912;-88
2022/04/18 10:06:19;;;;;;;;;;;13.80;37.00;;;;;;6176128;23;19962;-81
2022/04/18 10:08:54;;;;;;;;;;;14.00;38.10;;;;;;6174662;23;20617;-88
2022/04/18 10:11:22;;;;;;;;;;;14.40;35.70;;;;;;6173536;23;19912;-88
2022/04/18 10:14:03;;;;;;;;;;;14.30;36.90;;;;;;6172651;23;19958;-88
2022/04/18 10:16:29;;;;;;;;;;;14.60;35.80;;;;;;6170521;23;19959;-84
2022/04/18 10:18:57;;;;;;;;;;;14.50;33.60;;;;;;6172132;23;19991;-88
2022/04/18 10:21:30;;;;;;;;;;;14.40;34.10;;;;;;6171591;23;19919;-85
2022/04/18 10:23:55;;;;;;;;;;;14.40;33.70;;;;;;6145817;23;19910;-87
2022/04/18 10:26:42;;;;;;;;;;;14.50;35.70;;;;;;6168929;23;20377;-88
2022/04/18 10:29:20;;;;;;;;;;;14.60;36.40;;;;;;6169923;23;19959;-88
2022/04/18 10:31:46;;;;;;;;;;;14.70;33.70;;;;;;6169869;23;19913;-85
2022/04/18 10:34:12;;;;;;;;;;;14.60;36.80;;;;;;6170191;23;19980;-83
2022/04/18 10:36:44;;;;;;;;;;;14.80;35.10;;;;;;6168601;23;20308;-86
2022/04/18 10:39:11;;;;;;;;;;;15.00;33.70;;;;;;6168955;23;20510;-87
2022/04/18 10:41:37;;;;;;;;;;;14.90;35.80;;;;;;6170806;23;19947;-84
2022/04/18 10:44:05;;;;;;;;;;;15.10;35.60;;;;;;6168457;23;20422;-81
2022/04/18 10:46:30;;;;;;;;;;;15.40;34.40;;;;;;6170403;23;19966;-84
2022/04/18 10:48:57;;;;;;;;;;;15.70;34.50;;;;;;6169835;23;19909;-85
2022/04/18 10:51:27;;;;;;;;;;;16.00;34.70;;;;;;6168393;23;19983;-85
2022/04/18 10:54:03;;;;;;;;;;;16.30;34.70;;;;;;6169846;23;19905;-84
2022/04/18 10:56:56;;;;;;;;;;;16.50;35.20;;;;;;6171098;23;19909;-87
2022/04/18 10:59:25;;;;;;;;;;;16.50;34.10;;;;;;6170858;23;19983;-89
2022/04/18 11:01:51;;;;;;;;;;;16.00;33.50;;;;;;6170727;23;20401;-86
2022/04/18 11:04:17;;;;;;;;;;;15.80;33.70;;;;;;6139198;23;20551;-84
2022/04/18 11:06:49;;;;;;;;;;;16.00;35.90;;;;;;6168756;23;19905;-88
2022/04/18 11:09:22;;;;;;;;;;;15.80;33.50;;;;;;6169958;23;19908;-88
2022/04/18 11:12:00;;;;;;;;;;;16.20;34.50;;;;;;6170140;23;19919;-87
2022/04/18 11:14:27;;;;;;;;;;;17.00;33.90;;;;;;6168242;23;19939;-86
2022/04/18 11:17:02;;;;;;;;;;;15.90;32.20;;;;;;6169956;23;19908;-87
2022/04/18 11:22:01;;;;;;;;;;;15.50;35.30;;;;;;6170545;23;19920;-85
2022/04/18 11:24:39;;;;;;;;;;;15.30;35.10;;;;;;6144191;23;19948;-87
2022/04/18 11:27:21;;;;;;;;;;;15.00;34.20;;;;;;6143876;23;20571;-89
2022/04/18 11:29:51;;;;;;;;;;;14.50;35.20;;;;;;6170611;23;19962;-84
2022/04/18 11:32:23;;;;;;;;;;;14.30;35.20;;;;;;6170402;23;19904;-88
2022/04/18 11:34:50;;;;;;;;;;;15.30;36.30;;;;;;6137203;23;19911;-84
2022/04/18 11:37:33;;;;;;;;;;;13.80;36.80;;;;;;6127833;23;19928;-82
2022/04/18 11:40:18;;;;;;;;;;;13.80;36.00;;;;;;6115955;23;19912;-90
2022/04/18 11:42:45;;;;;;;;;;;14.00;36.40;;;;;;6117920;23;19905;-85
2022/04/18 11:45:38;;;;;;;;;;;14.40;36.90;;;;;;6122970;23;19901;-91
2022/04/18 11:48:04;;;;;;;;;;;14.40;34.70;;;;;;6126699;23;19943;-85
2022/04/18 11:50:30;;;;;;;;;;;14.50;35.10;;;;;;6123277;23;19934;-81
2022/04/18 11:53:14;;;;;;;;;;;14.30;34.70;;;;;;6126469;23;20028;-83
2022/04/18 11:55:43;;;;;;;;;;;14.40;35.80;;;;;;6123599;23;19998;-80
2022/04/18 11:58:09;;;;;;;;;;;14.40;36.60;;;;;;6118011;23;20062;-85
2022/04/18 12:08:48;;;;;;;;;;;16.30;33.60;;;;;;6142345;23;19939;-87
2022/04/18 12:11:15;;;;;;;;;;;16.70;33.10;;;;;;6116590;23;19984;-86
2022/04/18 12:13:44;;;;;;;;;;;17.00;32.00;;;;;;6141219;23;20319;-82
2022/04/18 12:16:10;;;;;;;;;;;17.30;32.00;;;;;;6090139;23;19918;-87
2022/04/18 12:21:13;;;;;;;;;;;16.50;32.20;;;;;;6167233;23;19924;-80
2022/04/18 12:23:43;;;;;;;;;;;16.30;33.00;;;;;;6119710;23;19983;-88
2022/04/18 12:26:09;;;;;;;;;;;15.60;31.40;;;;;;6170421;23;19901;-83
2022/04/18 12:28:35;;;;;;;;;;;15.10;33.00;;;;;;6170334;23;19907;-90
2022/04/18 12:31:12;;;;;;;;;;;15.30;34.00;;;;;;6139203;23;19905;-85
2022/04/18 12:33:48;;;;;;;;;;;15.50;34.00;;;;;;6170234;23;19936;-81
2022/04/18 12:36:36;;;;;;;;;;;15.60;34.00;;;;;;6143996;23;19932;-85
2022/04/18 12:39:05;;;;;;;;;;;17.30;35.60;;;;;;6142955;23;20411;-89
2022/04/18 12:41:39;;;;;;;;;;;15.70;34.10;;;;;;6170347;23;19982;-83
2022/04/18 12:44:12;;;;;;;;;;;16.00;34.80;;;;;;6143531;23;19939;-84
2022/04/18 12:46:38;;;;;;;;;;;13.80;32.00;;;;;;6143825;23;20094;-88
2022/04/18 12:49:24;;;;;;;;;;;16.00;33.60;;;;;;6170266;23;19970;-85
2022/04/18 12:51:51;;;;;;;;;;;15.80;33.50;;;;;;6143320;23;19968;-87
2022/04/18 12:54:22;;;;;;;;;;;15.40;33.00;;;;;;6144853;23;20473;-88
2022/04/18 12:56:50;;;;;;;;;;;14.00;32.80;;;;;;6170354;23;19904;-90
2022/04/18 12:59:23;;;;;;;;;;;14.50;33.80;;;;;;6144222;23;19908;-86
2022/04/18 13:01:49;;;;;;;;;;;14.20;33.60;;;;;;6169411;23;19913;-88
2022/04/18 13:04:19;;;;;;;;;;;14.00;35.60;;;;;;6144195;23;20307;-87
2022/04/18 13:06:54;;;;;;;;;;;13.70;35.10;;;;;;6143638;23;20475;-90
2022/04/18 13:09:20;;;;;;;;;;;12.70;34.90;;;;;;6143713;23;19904;-87
2022/04/18 13:11:45;;;;;;;;;;;13.60;35.30;;;;;;6143826;23;19988;-86
2022/04/18 13:14:12;;;;;;;;;;;13.60;35.20;;;;;;6169628;23;19990;-85
2022/04/18 13:16:39;;;;;;;;;;;13.70;35.40;;;;;;6143001;23;19905;-84
2022/04/18 13:19:12;;;;;;;;;;;13.60;34.90;;;;;;6143214;23;19927;-84
2022/04/18 13:21:40;;;;;;;;;;;13.70;34.80;;;;;;6143359;23;19916;-84
2022/04/18 13:24:06;;;;;;;;;;;13.70;35.20;;;;;;6169927;23;20267;-90
2022/04/18 13:26:33;;;;;;;;;;;13.40;35.60;;;;;;6143039;23;20377;-84
2022/04/18 13:28:58;;;;;;;;;;;13.50;35.60;;;;;;6143132;23;20376;-82
2022/04/18 13:31:27;;;;;;;;;;;13.40;35.50;;;;;;6143643;23;19952;-87
2022/04/18 13:33:53;;;;;;;;;;;12.80;36.00;;;;;;6170796;23;19982;-85
2022/04/18 13:36:37;;;;;;;;;;;13.20;37.00;;;;;;6170006;23;20512;-89
2022/04/18 13:39:05;;;;;;;;;;;13.10;36.40;;;;;;6143793;23;19908;-83
2022/04/18 13:41:34;;;;;;;;;;;12.90;36.80;;;;;;6169500;23;20213;-83
2022/04/18 13:44:00;;;;;;;;;;;12.80;37.60;;;;;;6170568;23;19965;-87
2022/04/18 13:46:25;;;;;;;;;;;12.70;36.80;;;;;;6170229;23;19967;-82
2022/04/18 13:48:51;;;;;;;;;;;12.70;37.20;;;;;;6170332;23;19975;-82
2022/04/18 13:51:30;;;;;;;;;;;12.80;37.00;;;;;;6144053;23;19920;-89
2022/04/18 13:53:58;;;;;;;;;;;12.60;36.40;;;;;;6144150;23;19950;-85
2022/04/18 13:56:28;;;;;;;;;;;12.40;36.90;;;;;;6170548;23;19904;-82
2022/04/18 13:58:53;;;;;;;;;;;12.80;37.90;;;;;;6170772;23;19939;-85
2022/04/18 14:01:19;;;;;;;;;;;12.80;36.60;;;;;;6169923;23;19916;-83
2022/04/18 14:03:44;;;;;;;;;;;13.00;37.70;;;;;;6143449;23;19911;-88
2022/04/18 14:06:11;;;;;;;;;;;13.10;37.10;;;;;;6169194;23;20339;-80
2022/04/18 14:08:37;;;;;;;;;;;13.00;36.50;;;;;;6169366;23;19904;-89
2022/04/18 14:11:03;;;;;;;;;;;12.90;36.70;;;;;;6169345;23;19904;-84
2022/04/18 14:13:30;;;;;;;;;;;12.80;37.00;;;;;;6143313;23;20146;-86
2022/04/18 14:21:24;;;;;;;;;;;12.90;38.70;;;;;;6179069;23;19923;-85
2022/04/18 14:23:50;;;;;;;;;;;12.50;39.20;;;;;;6191883;23;19928;-87
2022/04/18 14:26:16;;;;;;;;;;;12.30;38.80;;;;;;6165646;23;19901;-86
2022/04/18 14:28:51;;;;;;;;;;;12.20;38.50;;;;;;6167344;23;19931;-89
2022/04/18 14:31:41;;;;;;;;;;;12.20;38.30;;;;;;6173734;23;19897;-89
2022/04/18 14:34:13;;;;;;;;;;;12.80;39.50;;;;;;6158926;23;19908;-90
2022/04/18 14:36:48;;;;;;;;;;;13.60;48.70;;;;;;6182487;23;19993;-90
2022/04/18 14:39:35;;;;;;;;;;;12.10;40.60;;;;;;6176359;23;19955;-86
2022/04/18 14:42:01;;;;;;;;;;;11.50;40.20;;;;;;6187839;23;19920;-84
2022/04/18 14:44:29;;;;;;;;;;;11.40;43.00;;;;;;6194712;23;19900;-81
2022/04/18 14:47:03;;;;;;;;;;;11.40;42.60;;;;;;6206975;23;19907;-81
2022/04/18 14:49:32;;;;;;;;;;;11.30;42.90;;;;;;6207747;23;19889;-79
2022/04/18 14:51:57;;;;;;;;;;;11.20;45.00;;;;;;6209223;23;19899;-79
2022/04/18 14:54:23;;;;;;;;;;;10.80;44.60;;;;;;6182341;23;19904;-82
2022/04/18 14:59:14;;;;;;;;;;;10.80;42.90;;;;;;6186519;23;20009;-80
2022/04/18 15:01:40;;;;;;;;;;;10.90;44.70;;;;;;6180643;23;19909;-78
2022/04/18 15:04:06;;;;;;;;;;;10.50;43.30;;;;;;6183908;23;19915;-81
2022/04/18 15:09:20;;;;;;;;;;;10.70;43.60;;;;;;6180931;23;19911;-85
2022/04/18 15:14:27;;;;;;;;;;;10.50;44.70;;;;;;6191367;22;19929;-80
2022/04/18 15:16:52;;;;;;;;;;;11.00;45.80;;;;;;6216054;23;19957;-80
2022/04/18 15:19:24;;;;;;;;;;;10.20;46.40;;;;;;6215332;23;19888;-82
2022/04/18 15:21:56;;;;;;;;;;;10.40;46.40;;;;;;6212135;23;19908;-80
2022/04/18 15:24:31;;;;;;;;;;;9.00;45.70;;;;;;6205583;23;19907;-80
2022/04/18 15:27:12;;;;;;;;;;;10.80;47.30;;;;;;6206985;23;19962;-83
2022/04/18 15:32:17;;;;;;;;;;;10.00;46.90;;;;;;6196082;23;19916;-83
2022/04/18 15:34:43;;;;;;;;;;;9.90;48.90;;;;;;6171780;23;19911;-83
2022/04/18 15:37:09;;;;;;;;;;;10.20;46.80;;;;;;6187626;23;20431;-80
2022/04/18 15:39:35;;;;;;;;;;;10.20;46.20;;;;;;6207570;23;20541;-85
2022/04/18 15:42:09;;;;;;;;;;;10.20;45.20;;;;;;6207938;23;19923;-83
2022/04/18 15:44:39;;;;;;;;;;;10.50;46.40;;;;;;6177807;23;19889;-79
2022/04/18 15:47:11;;;;;;;;;;;9.80;45.30;;;;;;6200518;23;19905;-83
2022/04/18 15:49:36;;;;;;;;;;;9.80;46.70;;;;;;6198009;23;19889;-79
2022/04/18 15:52:02;;;;;;;;;;;9.70;48.00;;;;;;6174600;23;19915;-85
2022/04/18 15:54:49;;;;;;;;;;;9.50;50.10;;;;;;6204707;23;19901;-83
2022/04/18 15:57:29;;;;;;;;;;;9.30;50.90;;;;;;6208857;23;19888;-84
2022/04/18 15:59:55;;;;;;;;;;;9.30;52.40;;;;;;6184634;23;19916;-81